sensor_id;sensor_type;location;lat;lon;timestamp;temperature;humidity
32600;DHT22;19277;51.778;7.912;2023-02-19T00:01:33;21.30;78.90
32600;DHT22;19277;51.778;7.912;2023-02-19T00:04:09;21.40;79.00
32600;DHT22;19277;51.778;7.912;2023-02-19T00:06:36;21.30;78.90
32600;DHT22;19277;51.778;7.912;2023-02-19T00:09:02;21.40;78.90
32600;DHT22;19277;51.778;7.912;2023-02-19T00:11:31;21.40;78.90
32600;DHT22;19277;51.778;7.912;2023-02-19T00:13:58;21.40;78.80
32600;DHT22;19277;51.778;7.912;2023-02-19T00:16:36;21.40;78.80
32600;DHT22;19277;51.778;7.912;2023-02-19T00:19:04;21.50;78.80
32600;DHT22;19277;51.778;7.912;2023-02-19T00:21:31;21.50;78.70
32600;DHT22;19277;51.778;7.912;2023-02-19T00:24:02;21.50;78.70
32600;DHT22;19277;51.778;7.912;2023-02-19T00:26:28;21.50;78.70
32600;DHT22;19277;51.778;7.912;2023-02-19T00:28:55;21.50;78.80
32600;DHT22;19277;51.778;7.912;2023-02-19T00:31:24;21.60;78.70
32600;DHT22;19277;51.778;7.912;2023-02-19T00:33:52;21.60;78.70
32600;DHT22;19277;51.778;7.912;2023-02-19T00:36:18;21.60;78.80
32600;DHT22;19277;51.778;7.912;2023-02-19T00:38:44;21.60;78.80
32600;DHT22;19277;51.778;7.912;2023-02-19T00:41:11;21.60;78.80
32600;DHT22;19277;51.778;7.912;2023-02-19T00:43:46;21.60;78.80
32600;DHT22;19277;51.778;7.912;2023-02-19T00:46:11;21.60;78.80
32600;DHT22;19277;51.778;7.912;2023-02-19T00:48:37;21.60;78.80
32600;DHT22;19277;51.778;7.912;2023-02-19T00:51:03;21.70;78.90
32600;DHT22;19277;51.778;7.912;2023-02-19T00:53:28;21.70;78.80
32600;DHT22;19277;51.778;7.912;2023-02-19T00:55:54;21.70;78.90
32600;DHT22;19277;51.778;7.912;2023-02-19T00:58:19;21.70;78.90
32600;DHT22;19277;51.778;7.912;2023-02-19T01:00:45;21.70;78.80
32600;DHT22;19277;51.778;7.912;2023-02-19T01:03:11;21.70;78.80
32600;DHT22;19277;51.778;7.912;2023-02-19T01:05:37;21.70;78.90
32600;DHT22;19277;51.778;7.912;2023-02-19T01:08:02;21.70;78.90
32600;DHT22;19277;51.778;7.912;2023-02-19T01:10:28;21.70;79.00
32600;DHT22;19277;51.778;7.912;2023-02-19T01:12:53;21.70;79.20
32600;DHT22;19277;51.778;7.912;2023-02-19T01:15:19;21.70;79.20
32600;DHT22;19277;51.778;7.912;2023-02-19T01:17:44;21.70;79.30
32600;DHT22;19277;51.778;7.912;2023-02-19T01:20:10;21.70;79.40
32600;DHT22;19277;51.778;7.912;2023-02-19T01:22:35;21.70;79.50
32600;DHT22;19277;51.778;7.912;2023-02-19T01:25:01;21.70;79.50
32600;DHT22;19277;51.778;7.912;2023-02-19T01:27:27;21.70;79.50
32600;DHT22;19277;51.778;7.912;2023-02-19T01:29:52;21.70;79.50
32600;DHT22;19277;51.778;7.912;2023-02-19T01:32:18;21.70;79.50
32600;DHT22;19277;51.778;7.912;2023-02-19T01:34:43;21.70;79.50
32600;DHT22;19277;51.778;7.912;2023-02-19T01:37:09;21.70;79.50
32600;DHT22;19277;51.778;7.912;2023-02-19T01:39:37;21.70;79.60
32600;DHT22;19277;51.778;7.912;2023-02-19T01:42:11;21.70;79.60
32600;DHT22;19277;51.778;7.912;2023-02-19T01:47:03;21.70;79.80
32600;DHT22;19277;51.778;7.912;2023-02-19T01:49:32;21.70;79.50
32600;DHT22;19277;51.778;7.912;2023-02-19T01:52:13;21.70;79.50
32600;DHT22;19277;51.778;7.912;2023-02-19T01:54:43;21.70;79.50
32600;DHT22;19277;51.778;7.912;2023-02-19T01:57:16;21.70;79.40
32600;DHT22;19277;51.778;7.912;2023-02-19T01:59:44;21.70;79.40
32600;DHT22;19277;51.778;7.912;2023-02-19T02:02:10;21.70;79.40
32600;DHT22;19277;51.778;7.912;2023-02-19T02:04:36;21.70;79.60
32600;DHT22;19277;51.778;7.912;2023-02-19T02:07:03;21.70;79.70
32600;DHT22;19277;51.778;7.912;2023-02-19T02:09:50;21.70;79.80
32600;DHT22;19277;51.778;7.912;2023-02-19T02:12:34;21.70;79.80
32600;DHT22;19277;51.778;7.912;2023-02-19T02:14:59;21.70;79.80
32600;DHT22;19277;51.778;7.912;2023-02-19T02:17:29;21.70;79.90
32600;DHT22;19277;51.778;7.912;2023-02-19T02:20:15;21.70;80.00
32600;DHT22;19277;51.778;7.912;2023-02-19T02:26:28;21.60;80.10
32600;DHT22;19277;51.778;7.912;2023-02-19T02:29:10;21.60;80.10
32600;DHT22;19277;51.778;7.912;2023-02-19T02:31:47;21.60;80.10
32600;DHT22;19277;51.778;7.912;2023-02-19T02:34:18;21.60;80.20
32600;DHT22;19277;51.778;7.912;2023-02-19T02:36:50;21.60;80.20
32600;DHT22;19277;51.778;7.912;2023-02-19T02:39:19;21.60;80.20
32600;DHT22;19277;51.778;7.912;2023-02-19T02:41:53;21.60;80.20
32600;DHT22;19277;51.778;7.912;2023-02-19T02:44:40;21.60;80.20
32600;DHT22;19277;51.778;7.912;2023-02-19T02:47:07;21.60;80.20
32600;DHT22;19277;51.778;7.912;2023-02-19T02:49:55;21.60;80.20
32600;DHT22;19277;51.778;7.912;2023-02-19T02:52:32;21.60;80.20
32600;DHT22;19277;51.778;7.912;2023-02-19T02:55:20;21.60;80.20
32600;DHT22;19277;51.778;7.912;2023-02-19T02:57:46;21.60;80.10
32600;DHT22;19277;51.778;7.912;2023-02-19T03:00:13;21.60;80.20
32600;DHT22;19277;51.778;7.912;2023-02-19T03:02:39;21.60;80.30
32600;DHT22;19277;51.778;7.912;2023-02-19T03:05:22;21.60;80.30
32600;DHT22;19277;51.778;7.912;2023-02-19T03:10:38;21.60;80.50
32600;DHT22;19277;51.778;7.912;2023-02-19T03:13:09;21.60;80.50
32600;DHT22;19277;51.778;7.912;2023-02-19T03:16:17;21.60;80.50
32600;DHT22;19277;51.778;7.912;2023-02-19T03:19:04;21.60;80.60
32600;DHT22;19277;51.778;7.912;2023-02-19T03:24:21;21.60;80.70
32600;DHT22;19277;51.778;7.912;2023-02-19T03:27:08;21.60;80.70
32600;DHT22;19277;51.778;7.912;2023-02-19T03:29:36;21.60;80.70
32600;DHT22;19277;51.778;7.912;2023-02-19T03:32:25;21.60;80.70
32600;DHT22;19277;51.778;7.912;2023-02-19T03:34:59;21.50;80.70
32600;DHT22;19277;51.778;7.912;2023-02-19T03:37:34;21.50;80.80
32600;DHT22;19277;51.778;7.912;2023-02-19T03:40:02;21.50;80.80
32600;DHT22;19277;51.778;7.912;2023-02-19T03:48:17;21.50;81.00
32600;DHT22;19277;51.778;7.912;2023-02-19T03:50:57;21.50;81.10
32600;DHT22;19277;51.778;7.912;2023-02-19T03:53:51;21.50;81.00
32600;DHT22;19277;51.778;7.912;2023-02-19T03:56:33;21.50;81.00
32600;DHT22;19277;51.778;7.912;2023-02-19T03:59:27;21.50;81.00
32600;DHT22;19277;51.778;7.912;2023-02-19T04:02:00;21.50;81.00
32600;DHT22;19277;51.778;7.912;2023-02-19T04:04:35;21.50;81.10
32600;DHT22;19277;51.778;7.912;2023-02-19T04:07:02;21.50;81.00
32600;DHT22;19277;51.778;7.912;2023-02-19T04:09:35;21.50;81.00
32600;DHT22;19277;51.778;7.912;2023-02-19T04:12:02;21.50;81.00
32600;DHT22;19277;51.778;7.912;2023-02-19T04:14:49;21.60;80.90
32600;DHT22;19277;51.778;7.912;2023-02-19T04:17:23;21.50;80.90
32600;DHT22;19277;51.778;7.912;2023-02-19T04:19:52;21.50;80.80
32600;DHT22;19277;51.778;7.912;2023-02-19T04:22:19;21.50;80.80
32600;DHT22;19277;51.778;7.912;2023-02-19T04:24:49;21.50;80.70
32600;DHT22;19277;51.778;7.912;2023-02-19T04:27:16;21.50;80.70
32600;DHT22;19277;51.778;7.912;2023-02-19T04:29:41;21.50;80.70
32600;DHT22;19277;51.778;7.912;2023-02-19T04:32:09;21.50;80.70
32600;DHT22;19277;51.778;7.912;2023-02-19T04:34:35;21.50;80.70
32600;DHT22;19277;51.778;7.912;2023-02-19T04:37:01;21.50;80.80
32600;DHT22;19277;51.778;7.912;2023-02-19T04:39:26;21.60;80.90
32600;DHT22;19277;51.778;7.912;2023-02-19T04:41:52;21.60;80.80
32600;DHT22;19277;51.778;7.912;2023-02-19T04:44:17;21.50;80.80
32600;DHT22;19277;51.778;7.912;2023-02-19T04:46:43;21.50;80.70
32600;DHT22;19277;51.778;7.912;2023-02-19T04:49:08;21.60;80.80
32600;DHT22;19277;51.778;7.912;2023-02-19T04:51:34;21.50;80.80
32600;DHT22;19277;51.778;7.912;2023-02-19T04:53:59;21.60;80.90
32600;DHT22;19277;51.778;7.912;2023-02-19T04:56:25;21.50;80.80
32600;DHT22;19277;51.778;7.912;2023-02-19T04:58:51;21.60;80.90
32600;DHT22;19277;51.778;7.912;2023-02-19T05:01:16;21.50;80.80
32600;DHT22;19277;51.778;7.912;2023-02-19T05:03:42;21.50;80.80
32600;DHT22;19277;51.778;7.912;2023-02-19T05:06:11;21.50;80.90
32600;DHT22;19277;51.778;7.912;2023-02-19T05:08:37;21.60;80.90
32600;DHT22;19277;51.778;7.912;2023-02-19T05:11:04;21.50;80.90
32600;DHT22;19277;51.778;7.912;2023-02-19T05:13:31;21.60;80.80
32600;DHT22;19277;51.778;7.912;2023-02-19T05:16:02;21.50;80.80
32600;DHT22;19277;51.778;7.912;2023-02-19T05:18:29;21.60;80.90
32600;DHT22;19277;51.778;7.912;2023-02-19T05:20:56;21.60;81.00
32600;DHT22;19277;51.778;7.912;2023-02-19T05:23:23;21.50;80.90
32600;DHT22;19277;51.778;7.912;2023-02-19T05:25:48;21.60;81.00
32600;DHT22;19277;51.778;7.912;2023-02-19T05:28:14;21.50;80.90
32600;DHT22;19277;51.778;7.912;2023-02-19T05:30:48;21.60;81.10
32600;DHT22;19277;51.778;7.912;2023-02-19T05:33:15;21.60;81.20
32600;DHT22;19277;51.778;7.912;2023-02-19T05:35:48;21.60;81.30
32600;DHT22;19277;51.778;7.912;2023-02-19T05:38:15;21.60;81.40
32600;DHT22;19277;51.778;7.912;2023-02-19T05:40:42;21.60;81.40
32600;DHT22;19277;51.778;7.912;2023-02-19T05:43:08;21.60;81.50
32600;DHT22;19277;51.778;7.912;2023-02-19T05:45:34;21.60;81.80
32600;DHT22;19277;51.778;7.912;2023-02-19T05:48:00;21.50;81.70
32600;DHT22;19277;51.778;7.912;2023-02-19T05:50:26;21.50;81.90
32600;DHT22;19277;51.778;7.912;2023-02-19T05:52:52;21.50;82.00
32600;DHT22;19277;51.778;7.912;2023-02-19T05:55:18;21.50;82.10
32600;DHT22;19277;51.778;7.912;2023-02-19T05:57:45;21.50;82.20
32600;DHT22;19277;51.778;7.912;2023-02-19T06:00:14;21.50;82.40
32600;DHT22;19277;51.778;7.912;2023-02-19T06:02:39;21.50;82.30
32600;DHT22;19277;51.778;7.912;2023-02-19T06:05:05;21.50;82.40
32600;DHT22;19277;51.778;7.912;2023-02-19T06:07:31;21.50;82.40
32600;DHT22;19277;51.778;7.912;2023-02-19T06:09:57;21.50;82.50
32600;DHT22;19277;51.778;7.912;2023-02-19T06:12:23;21.50;82.50
32600;DHT22;19277;51.778;7.912;2023-02-19T06:14:49;21.50;82.50
32600;DHT22;19277;51.778;7.912;2023-02-19T06:17:14;21.40;82.40
32600;DHT22;19277;51.778;7.912;2023-02-19T06:19:40;21.40;82.30
32600;DHT22;19277;51.778;7.912;2023-02-19T06:22:06;21.50;82.30
32600;DHT22;19277;51.778;7.912;2023-02-19T06:24:32;21.40;82.20
32600;DHT22;19277;51.778;7.912;2023-02-19T06:26:57;21.40;82.20
32600;DHT22;19277;51.778;7.912;2023-02-19T06:29:23;21.40;82.20
32600;DHT22;19277;51.778;7.912;2023-02-19T06:31:49;21.50;82.20
32600;DHT22;19277;51.778;7.912;2023-02-19T06:34:15;21.40;82.10
32600;DHT22;19277;51.778;7.912;2023-02-19T06:36:40;21.40;82.10
32600;DHT22;19277;51.778;7.912;2023-02-19T06:39:06;21.40;82.10
32600;DHT22;19277;51.778;7.912;2023-02-19T06:41:32;21.40;82.10
32600;DHT22;19277;51.778;7.912;2023-02-19T06:43:57;21.40;82.10
32600;DHT22;19277;51.778;7.912;2023-02-19T06:46:23;21.40;82.40
32600;DHT22;19277;51.778;7.912;2023-02-19T06:48:49;21.40;82.80
32600;DHT22;19277;51.778;7.912;2023-02-19T06:51:16;21.40;82.90
32600;DHT22;19277;51.778;7.912;2023-02-19T06:53:44;21.40;82.80
32600;DHT22;19277;51.778;7.912;2023-02-19T06:56:23;21.40;83.00
32600;DHT22;19277;51.778;7.912;2023-02-19T06:58:50;21.40;82.90
32600;DHT22;19277;51.778;7.912;2023-02-19T07:01:16;21.40;82.90
32600;DHT22;19277;51.778;7.912;2023-02-19T07:03:42;21.40;82.90
32600;DHT22;19277;51.778;7.912;2023-02-19T07:06:07;21.40;82.80
32600;DHT22;19277;51.778;7.912;2023-02-19T07:08:33;21.40;82.90
32600;DHT22;19277;51.778;7.912;2023-02-19T07:10:58;21.40;82.80
32600;DHT22;19277;51.778;7.912;2023-02-19T07:13:25;21.40;82.80
32600;DHT22;19277;51.778;7.912;2023-02-19T07:15:57;21.40;82.80
32600;DHT22;19277;51.778;7.912;2023-02-19T07:18:23;21.40;82.80
32600;DHT22;19277;51.778;7.912;2023-02-19T07:20:48;21.40;82.70
32600;DHT22;19277;51.778;7.912;2023-02-19T07:23:14;21.40;82.70
32600;DHT22;19277;51.778;7.912;2023-02-19T07:25:40;21.50;82.70
32600;DHT22;19277;51.778;7.912;2023-02-19T07:28:06;21.50;82.70
32600;DHT22;19277;51.778;7.912;2023-02-19T07:30:32;21.50;82.70
32600;DHT22;19277;51.778;7.912;2023-02-19T07:32:58;21.50;82.70
32600;DHT22;19277;51.778;7.912;2023-02-19T07:35:23;21.40;82.50
32600;DHT22;19277;51.778;7.912;2023-02-19T07:37:49;21.50;82.60
32600;DHT22;19277;51.778;7.912;2023-02-19T07:40:14;21.50;82.60
32600;DHT22;19277;51.778;7.912;2023-02-19T07:42:40;21.50;82.70
32600;DHT22;19277;51.778;7.912;2023-02-19T07:45:06;21.50;82.60
32600;DHT22;19277;51.778;7.912;2023-02-19T07:47:32;21.50;82.60
32600;DHT22;19277;51.778;7.912;2023-02-19T07:49:57;21.50;82.50
32600;DHT22;19277;51.778;7.912;2023-02-19T07:52:23;21.50;82.60
32600;DHT22;19277;51.778;7.912;2023-02-19T07:54:48;21.50;82.60
32600;DHT22;19277;51.778;7.912;2023-02-19T07:57:14;21.50;82.60
32600;DHT22;19277;51.778;7.912;2023-02-19T07:59:40;21.40;82.50
32600;DHT22;19277;51.778;7.912;2023-02-19T08:02:16;21.50;82.50
32600;DHT22;19277;51.778;7.912;2023-02-19T08:05:01;21.50;82.50
32600;DHT22;19277;51.778;7.912;2023-02-19T08:07:31;21.50;82.40
32600;DHT22;19277;51.778;7.912;2023-02-19T08:09:57;21.50;82.50
32600;DHT22;19277;51.778;7.912;2023-02-19T08:12:41;21.40;82.40
32600;DHT22;19277;51.778;7.912;2023-02-19T08:15:25;21.50;82.50
32600;DHT22;19277;51.778;7.912;2023-02-19T08:17:51;21.50;82.40
32600;DHT22;19277;51.778;7.912;2023-02-19T08:20:16;21.50;82.40
32600;DHT22;19277;51.778;7.912;2023-02-19T08:22:42;21.50;82.30
32600;DHT22;19277;51.778;7.912;2023-02-19T08:25:07;21.50;82.30
32600;DHT22;19277;51.778;7.912;2023-02-19T08:27:33;21.50;82.20
32600;DHT22;19277;51.778;7.912;2023-02-19T08:29:59;21.50;82.10
32600;DHT22;19277;51.778;7.912;2023-02-19T08:32:24;21.50;82.10
32600;DHT22;19277;51.778;7.912;2023-02-19T08:34:50;21.50;82.10
32600;DHT22;19277;51.778;7.912;2023-02-19T08:37:15;21.50;82.10
32600;DHT22;19277;51.778;7.912;2023-02-19T08:39:41;21.50;82.00
32600;DHT22;19277;51.778;7.912;2023-02-19T08:42:06;21.50;82.00
32600;DHT22;19277;51.778;7.912;2023-02-19T08:44:32;21.50;82.00
32600;DHT22;19277;51.778;7.912;2023-02-19T08:46:57;21.50;82.00
32600;DHT22;19277;51.778;7.912;2023-02-19T08:49:26;21.50;82.10
32600;DHT22;19277;51.778;7.912;2023-02-19T08:51:52;21.50;82.20
32600;DHT22;19277;51.778;7.912;2023-02-19T08:54:17;21.50;82.30
32600;DHT22;19277;51.778;7.912;2023-02-19T08:56:43;21.50;82.40
32600;DHT22;19277;51.778;7.912;2023-02-19T08:59:09;21.50;82.20
32600;DHT22;19277;51.778;7.912;2023-02-19T09:01:34;21.50;82.10
32600;DHT22;19277;51.778;7.912;2023-02-19T09:04:00;21.50;82.10
32600;DHT22;19277;51.778;7.912;2023-02-19T09:06:25;21.50;82.00
32600;DHT22;19277;51.778;7.912;2023-02-19T09:08:51;21.50;82.00
32600;DHT22;19277;51.778;7.912;2023-02-19T09:11:17;21.50;81.90
32600;DHT22;19277;51.778;7.912;2023-02-19T09:13:42;21.60;82.00
32600;DHT22;19277;51.778;7.912;2023-02-19T09:16:08;21.60;82.10
32600;DHT22;19277;51.778;7.912;2023-02-19T09:18:34;21.50;82.00
32600;DHT22;19277;51.778;7.912;2023-02-19T09:21:01;21.50;82.00
32600;DHT22;19277;51.778;7.912;2023-02-19T09:23:29;21.60;82.30
32600;DHT22;19277;51.778;7.912;2023-02-19T09:25:59;21.60;82.60
32600;DHT22;19277;51.778;7.912;2023-02-19T09:28:25;21.50;82.60
32600;DHT22;19277;51.778;7.912;2023-02-19T09:30:51;21.50;82.60
32600;DHT22;19277;51.778;7.912;2023-02-19T09:33:17;21.50;82.50
32600;DHT22;19277;51.778;7.912;2023-02-19T09:35:43;21.50;82.70
32600;DHT22;19277;51.778;7.912;2023-02-19T09:38:08;21.50;82.90
32600;DHT22;19277;51.778;7.912;2023-02-19T09:40:36;21.50;83.00
32600;DHT22;19277;51.778;7.912;2023-02-19T09:43:06;21.50;83.00
32600;DHT22;19277;51.778;7.912;2023-02-19T09:45:33;21.50;83.20
32600;DHT22;19277;51.778;7.912;2023-02-19T09:48:00;21.50;83.20
32600;DHT22;19277;51.778;7.912;2023-02-19T09:50:36;21.50;83.40
32600;DHT22;19277;51.778;7.912;2023-02-19T09:53:05;21.50;83.50
32600;DHT22;19277;51.778;7.912;2023-02-19T09:55:39;21.40;84.30
32600;DHT22;19277;51.778;7.912;2023-02-19T09:58:32;21.50;85.00
32600;DHT22;19277;51.778;7.912;2023-02-19T10:01:01;21.40;84.50
32600;DHT22;19277;51.778;7.912;2023-02-19T10:03:29;21.40;84.40
32600;DHT22;19277;51.778;7.912;2023-02-19T10:06:25;21.40;84.10
32600;DHT22;19277;51.778;7.912;2023-02-19T10:08:54;21.50;83.90
32600;DHT22;19277;51.778;7.912;2023-02-19T10:11:21;21.50;83.80
32600;DHT22;19277;51.778;7.912;2023-02-19T10:14:06;21.50;83.80
32600;DHT22;19277;51.778;7.912;2023-02-19T10:16:35;21.50;83.70
32600;DHT22;19277;51.778;7.912;2023-02-19T10:19:10;21.60;83.50
32600;DHT22;19277;51.778;7.912;2023-02-19T10:21:37;21.60;83.40
32600;DHT22;19277;51.778;7.912;2023-02-19T10:24:05;21.50;83.30
32600;DHT22;19277;51.778;7.912;2023-02-19T10:26:31;21.60;83.20
32600;DHT22;19277;51.778;7.912;2023-02-19T10:29:02;21.50;83.20
32600;DHT22;19277;51.778;7.912;2023-02-19T10:31:30;21.60;83.20
32600;DHT22;19277;51.778;7.912;2023-02-19T10:33:58;21.60;83.20
32600;DHT22;19277;51.778;7.912;2023-02-19T10:36:39;21.50;83.00
32600;DHT22;19277;51.778;7.912;2023-02-19T10:41:54;21.50;83.10
32600;DHT22;19277;51.778;7.912;2023-02-19T10:44:27;21.50;83.10
32600;DHT22;19277;51.778;7.912;2023-02-19T10:46:57;21.50;83.00
32600;DHT22;19277;51.778;7.912;2023-02-19T10:49:27;21.50;83.10
32600;DHT22;19277;51.778;7.912;2023-02-19T10:51:56;21.50;83.00
32600;DHT22;19277;51.778;7.912;2023-02-19T10:54:31;21.60;82.90
32600;DHT22;19277;51.778;7.912;2023-02-19T11:00:21;21.50;82.70
32600;DHT22;19277;51.778;7.912;2023-02-19T11:02:46;21.50;82.70
32600;DHT22;19277;51.778;7.912;2023-02-19T11:05:17;21.60;82.70
32600;DHT22;19277;51.778;7.912;2023-02-19T11:07:55;21.50;82.60
32600;DHT22;19277;51.778;7.912;2023-02-19T11:10:27;21.50;82.60
32600;DHT22;19277;51.778;7.912;2023-02-19T11:12:56;21.60;82.70
32600;DHT22;19277;51.778;7.912;2023-02-19T11:15:29;21.50;82.60
32600;DHT22;19277;51.778;7.912;2023-02-19T11:20:46;21.50;82.60
32600;DHT22;19277;51.778;7.912;2023-02-19T11:23:15;21.50;82.70
32600;DHT22;19277;51.778;7.912;2023-02-19T11:25:46;21.50;82.70
32600;DHT22;19277;51.778;7.912;2023-02-19T11:30:46;21.50;83.30
32600;DHT22;19277;51.778;7.912;2023-02-19T11:35:47;21.50;83.40
32600;DHT22;19277;51.778;7.912;2023-02-19T11:38:15;21.50;83.30
32600;DHT22;19277;51.778;7.912;2023-02-19T11:46:48;21.60;83.20
32600;DHT22;19277;51.778;7.912;2023-02-19T12:00:12;21.70;83.00
32600;DHT22;19277;51.778;7.912;2023-02-19T12:11:43;21.80;82.80
32600;DHT22;19277;51.778;7.912;2023-02-19T12:17:42;21.80;82.70
32600;DHT22;19277;51.778;7.912;2023-02-19T12:25:56;21.80;82.70
32600;DHT22;19277;51.778;7.912;2023-02-19T12:28:31;21.80;82.80
32600;DHT22;19277;51.778;7.912;2023-02-19T12:34:06;21.80;82.90
32600;DHT22;19277;51.778;7.912;2023-02-19T12:39:44;21.70;83.20
32600;DHT22;19277;51.778;7.912;2023-02-19T12:45:41;21.70;83.30
32600;DHT22;19277;51.778;7.912;2023-02-19T12:50:39;21.70;83.50
32600;DHT22;19277;51.778;7.912;2023-02-19T12:55:56;21.70;83.80
32600;DHT22;19277;51.778;7.912;2023-02-19T12:58:44;21.70;83.80
32600;DHT22;19277;51.778;7.912;2023-02-19T13:01:38;21.70;84.50
32600;DHT22;19277;51.778;7.912;2023-02-19T13:04:28;21.60;84.50
32600;DHT22;19277;51.778;7.912;2023-02-19T13:13:30;21.70;84.10
32600;DHT22;19277;51.778;7.912;2023-02-19T13:16:06;21.70;83.70
32600;DHT22;19277;51.778;7.912;2023-02-19T13:18:47;21.70;83.40
32600;DHT22;19277;51.778;7.912;2023-02-19T13:21:15;21.70;83.20
32600;DHT22;19277;51.778;7.912;2023-02-19T13:24:02;21.70;83.00
32600;DHT22;19277;51.778;7.912;2023-02-19T13:35:24;21.60;82.60
32600;DHT22;19277;51.778;7.912;2023-02-19T13:37:51;21.60;82.50
32600;DHT22;19277;51.778;7.912;2023-02-19T13:40:34;21.60;82.40
32600;DHT22;19277;51.778;7.912;2023-02-19T13:43:03;21.60;82.40
32600;DHT22;19277;51.778;7.912;2023-02-19T13:45:43;21.60;82.30
32600;DHT22;19277;51.778;7.912;2023-02-19T13:50:39;21.60;82.30
32600;DHT22;19277;51.778;7.912;2023-02-19T13:59:33;21.50;82.20
32600;DHT22;19277;51.778;7.912;2023-02-19T14:17:36;21.60;84.00
32600;DHT22;19277;51.778;7.912;2023-02-19T14:25:27;21.70;84.80
32600;DHT22;19277;51.778;7.912;2023-02-19T14:30:39;21.70;84.80
32600;DHT22;19277;51.778;7.912;2023-02-19T14:33:09;21.80;84.70
32600;DHT22;19277;51.778;7.912;2023-02-19T14:35:39;21.70;84.60
32600;DHT22;19277;51.778;7.912;2023-02-19T14:38:05;21.80;84.60
32600;DHT22;19277;51.778;7.912;2023-02-19T14:40:37;21.80;84.60
32600;DHT22;19277;51.778;7.912;2023-02-19T14:43:04;21.80;84.60
32600;DHT22;19277;51.778;7.912;2023-02-19T14:45:37;21.80;84.80
32600;DHT22;19277;51.778;7.912;2023-02-19T14:48:05;21.80;84.60
32600;DHT22;19277;51.778;7.912;2023-02-19T14:50:37;21.90;84.60
32600;DHT22;19277;51.778;7.912;2023-02-19T14:53:04;21.80;84.50
32600;DHT22;19277;51.778;7.912;2023-02-19T14:55:36;21.80;84.50
32600;DHT22;19277;51.778;7.912;2023-02-19T14:58:11;21.80;84.30
32600;DHT22;19277;51.778;7.912;2023-02-19T15:00:41;21.90;84.40
32600;DHT22;19277;51.778;7.912;2023-02-19T15:03:47;21.80;84.40
32600;DHT22;19277;51.778;7.912;2023-02-19T15:06:14;21.90;84.40
32600;DHT22;19277;51.778;7.912;2023-02-19T15:08:45;21.90;84.30
32600;DHT22;19277;51.778;7.912;2023-02-19T15:11:31;21.90;84.40
32600;DHT22;19277;51.778;7.912;2023-02-19T15:14:02;21.90;85.00
32600;DHT22;19277;51.778;7.912;2023-02-19T15:16:31;21.90;84.70
32600;DHT22;19277;51.778;7.912;2023-02-19T15:18:58;21.90;84.70
32600;DHT22;19277;51.778;7.912;2023-02-19T15:21:28;21.90;84.50
32600;DHT22;19277;51.778;7.912;2023-02-19T15:23:56;21.90;84.90
32600;DHT22;19277;51.778;7.912;2023-02-19T15:26:48;21.90;77.80
32600;DHT22;19277;51.778;7.912;2023-02-19T15:29:18;17.60;66.60
32600;DHT22;19277;51.778;7.912;2023-02-19T15:34:26;12.80;82.30
32600;DHT22;19277;51.778;7.912;2023-02-19T15:36:59;11.60;87.20
32600;DHT22;19277;51.778;7.912;2023-02-19T15:39:37;11.00;90.60
32600;DHT22;19277;51.778;7.912;2023-02-19T15:42:05;10.80;91.30
32600;DHT22;19277;51.778;7.912;2023-02-19T15:47:27;10.50;93.00
32600;DHT22;19277;51.778;7.912;2023-02-19T15:52:33;12.90;97.90
32600;DHT22;19277;51.778;7.912;2023-02-19T15:57:32;15.20;94.20
32600;DHT22;19277;51.778;7.912;2023-02-19T16:00:05;16.10;92.70
32600;DHT22;19277;51.778;7.912;2023-02-19T16:02:35;16.90;91.60
32600;DHT22;19277;51.778;7.912;2023-02-19T16:05:10;17.50;90.70
32600;DHT22;19277;51.778;7.912;2023-02-19T16:07:36;18.00;89.60
32600;DHT22;19277;51.778;7.912;2023-02-19T16:10:22;18.40;88.10
32600;DHT22;19277;51.778;7.912;2023-02-19T16:13:01;18.70;86.70
32600;DHT22;19277;51.778;7.912;2023-02-19T16:15:29;19.00;86.00
32600;DHT22;19277;51.778;7.912;2023-02-19T16:17:55;19.20;85.40
32600;DHT22;19277;51.778;7.912;2023-02-19T16:22:57;19.60;84.40
32600;DHT22;19277;51.778;7.912;2023-02-19T16:25:40;19.70;83.80
32600;DHT22;19277;51.778;7.912;2023-02-19T16:28:13;19.80;83.30
32600;DHT22;19277;51.778;7.912;2023-02-19T16:30:43;19.90;83.00
32600;DHT22;19277;51.778;7.912;2023-02-19T16:33:41;20.10;82.60
32600;DHT22;19277;51.778;7.912;2023-02-19T16:46:50;20.50;82.50
32600;DHT22;19277;51.778;7.912;2023-02-19T16:49:16;20.50;82.50
32600;DHT22;19277;51.778;7.912;2023-02-19T16:51:43;20.60;82.40
32600;DHT22;19277;51.778;7.912;2023-02-19T16:54:10;20.60;82.60
32600;DHT22;19277;51.778;7.912;2023-02-19T16:56:36;20.70;82.60
32600;DHT22;19277;51.778;7.912;2023-02-19T16:59:02;20.70;82.80
32600;DHT22;19277;51.778;7.912;2023-02-19T17:01:28;20.80;82.90
32600;DHT22;19277;51.778;7.912;2023-02-19T17:04:01;20.80;83.00
32600;DHT22;19277;51.778;7.912;2023-02-19T17:06:28;20.80;82.70
32600;DHT22;19277;51.778;7.912;2023-02-19T17:08:54;20.80;82.70
32600;DHT22;19277;51.778;7.912;2023-02-19T17:11:19;20.90;82.90
32600;DHT22;19277;51.778;7.912;2023-02-19T17:13:45;20.90;82.80
32600;DHT22;19277;51.778;7.912;2023-02-19T17:16:22;20.90;82.90
32600;DHT22;19277;51.778;7.912;2023-02-19T17:18:49;20.90;83.00
32600;DHT22;19277;51.778;7.912;2023-02-19T17:21:21;20.90;82.90
32600;DHT22;19277;51.778;7.912;2023-02-19T17:23:47;21.00;83.00
32600;DHT22;19277;51.778;7.912;2023-02-19T17:26:27;21.00;82.80
32600;DHT22;19277;51.778;7.912;2023-02-19T17:29:01;21.00;82.90
32600;DHT22;19277;51.778;7.912;2023-02-19T17:31:28;21.00;82.70
32600;DHT22;19277;51.778;7.912;2023-02-19T17:33:54;21.00;82.60
32600;DHT22;19277;51.778;7.912;2023-02-19T17:36:26;21.00;82.90
32600;DHT22;19277;51.778;7.912;2023-02-19T17:38:52;21.00;83.10
32600;DHT22;19277;51.778;7.912;2023-02-19T17:41:18;21.00;83.50
32600;DHT22;19277;51.778;7.912;2023-02-19T17:43:44;21.00;83.70
32600;DHT22;19277;51.778;7.912;2023-02-19T17:46:14;21.10;84.00
32600;DHT22;19277;51.778;7.912;2023-02-19T17:48:40;21.10;84.10
32600;DHT22;19277;51.778;7.912;2023-02-19T17:51:06;21.10;84.00
32600;DHT22;19277;51.778;7.912;2023-02-19T17:53:31;21.10;84.10
32600;DHT22;19277;51.778;7.912;2023-02-19T17:55:57;21.10;84.20
32600;DHT22;19277;51.778;7.912;2023-02-19T17:58:22;21.10;84.30
32600;DHT22;19277;51.778;7.912;2023-02-19T18:00:48;21.10;84.70
32600;DHT22;19277;51.778;7.912;2023-02-19T18:03:13;21.10;84.60
32600;DHT22;19277;51.778;7.912;2023-02-19T18:05:39;21.10;84.70
32600;DHT22;19277;51.778;7.912;2023-02-19T18:08:04;21.10;84.60
32600;DHT22;19277;51.778;7.912;2023-02-19T18:10:30;21.10;84.50
32600;DHT22;19277;51.778;7.912;2023-02-19T18:12:56;21.20;84.60
32600;DHT22;19277;51.778;7.912;2023-02-19T18:15:23;21.20;84.50
32600;DHT22;19277;51.778;7.912;2023-02-19T18:17:51;21.20;84.30
32600;DHT22;19277;51.778;7.912;2023-02-19T18:20:27;21.10;84.20